createdAt,value
2017-08-28T11:44:23.281Z,20.43
2017-08-28T11:46:50.818Z,16.20
2017-08-28T11:49:18.382Z,17.00
2017-08-28T11:51:45.917Z,13.60
2017-08-28T11:54:13.494Z,15.07
2017-08-28T11:56:41.057Z,14.37
2017-08-28T11:59:08.622Z,16.10
2017-08-28T12:01:37.876Z,13.90
2017-08-28T12:04:05.553Z,15.23
2017-08-28T12:06:33.113Z,13.67
2017-08-28T12:09:01.401Z,15.50
2017-08-28T12:11:28.968Z,15.00
2017-08-28T12:13:56.539Z,16.03
2017-08-28T12:16:24.072Z,15.83
2017-08-28T12:18:52.446Z,16.00
2017-08-28T12:21:19.974Z,19.77
2017-08-28T12:23:47.550Z,24.27
2017-08-28T12:26:15.083Z,20.50
2017-08-28T12:28:42.611Z,20.30
2017-08-28T12:31:10.165Z,17.50
2017-08-28T12:33:37.712Z,20.30
2017-08-28T12:36:05.294Z,14.43
2017-08-28T12:38:32.831Z,18.17
2017-08-28T12:41:00.401Z,12.70
2017-08-28T12:43:27.933Z,15.50
2017-08-28T12:45:55.470Z,12.77
2017-08-28T12:48:23.027Z,13.20
2017-08-28T12:50:51.337Z,15.40
2017-08-28T12:53:18.911Z,12.47
2017-08-28T12:55:46.443Z,15.60
2017-08-28T12:58:14.015Z,15.37
2017-08-28T13:00:41.550Z,13.40
2017-08-28T13:03:09.141Z,11.80
2017-08-28T13:05:36.699Z,14.03
2017-08-28T13:08:04.230Z,13.27
2017-08-28T13:10:31.806Z,12.00
2017-08-28T13:12:59.336Z,11.63
2017-08-28T13:15:27.648Z,14.20
2017-08-28T13:17:55.238Z,12.00
2017-08-28T13:20:22.773Z,12.60
2017-08-28T13:22:50.315Z,11.50
2017-08-28T13:25:17.886Z,14.00
2017-08-28T13:27:45.440Z,11.73
2017-08-28T13:30:13.050Z,13.00
2017-08-28T13:32:40.590Z,14.70
2017-08-28T13:35:08.135Z,14.67
2017-08-28T13:37:35.689Z,15.03
2017-08-28T13:40:03.228Z,11.43
2017-08-28T13:42:31.128Z,10.33
2017-08-28T13:44:58.663Z,12.30
2017-08-28T13:47:26.195Z,13.83
2017-08-28T13:49:53.749Z,11.90
2017-08-28T13:52:21.734Z,11.80
2017-08-28T13:54:49.598Z,11.40
2017-08-28T13:57:17.133Z,16.53
2017-08-28T13:59:44.671Z,17.37
2017-08-28T14:02:12.229Z,13.00
2017-08-28T14:04:39.764Z,13.03
2017-08-28T14:07:07.434Z,16.17
2017-08-28T14:09:34.977Z,12.43
2017-08-28T14:12:02.517Z,13.93
2017-08-28T14:14:30.846Z,12.70
2017-08-28T14:16:58.375Z,14.73
2017-08-28T14:19:25.942Z,13.33
2017-08-28T14:21:53.468Z,13.00
2017-08-28T14:24:21.683Z,14.00
2017-08-28T14:26:49.757Z,11.47
2017-08-28T14:29:17.288Z,11.80
2017-08-28T14:31:44.883Z,17.40
2017-08-28T14:34:12.414Z,10.03
2017-08-28T14:36:39.942Z,10.73
2017-08-28T14:39:08.152Z,10.80
2017-08-28T14:41:36.187Z,16.83
2017-08-28T14:44:03.812Z,11.83
2017-08-28T14:46:32.249Z,13.30
2017-08-28T14:48:59.846Z,13.67
2017-08-28T14:51:27.401Z,13.73
2017-08-28T14:53:54.947Z,14.00
2017-08-28T14:56:22.601Z,12.03
2017-08-28T14:58:50.130Z,11.90
2017-08-28T15:01:17.658Z,14.93
2017-08-28T15:03:45.210Z,16.17
2017-08-28T15:06:12.756Z,17.93
2017-08-28T15:08:40.509Z,13.90
2017-08-28T15:11:08.050Z,16.20
2017-08-28T15:13:35.589Z,13.90
2017-08-28T15:16:03.155Z,14.90
2017-08-28T15:18:30.690Z,20.33
2017-08-28T15:20:58.282Z,18.43
2017-08-28T15:23:25.818Z,14.00
2017-08-28T15:25:53.576Z,13.90
2017-08-28T15:28:21.122Z,20.13
2017-08-28T15:30:48.648Z,13.73
2017-08-28T15:33:16.215Z,17.47
2017-08-28T15:35:43.752Z,15.77
2017-08-28T15:38:11.282Z,15.33
2017-08-28T15:40:38.832Z,15.33
2017-08-28T15:43:06.357Z,17.20
2017-08-28T15:45:33.951Z,14.10
2017-08-28T15:48:01.488Z,16.20
2017-08-28T15:50:29.014Z,15.33
2017-08-28T15:52:56.602Z,17.93
2017-08-28T15:55:24.134Z,20.43
2017-08-28T15:57:51.728Z,17.27
2017-08-28T16:00:19.256Z,20.47
2017-08-28T16:02:46.796Z,16.80
2017-08-28T16:05:14.350Z,28.33
2017-08-28T16:07:41.886Z,22.63
2017-08-28T16:10:09.446Z,21.13
2017-08-28T16:12:36.999Z,18.60
2017-08-28T16:15:04.542Z,18.10
2017-08-28T16:17:32.099Z,19.20
2017-08-28T16:19:59.642Z,19.33
2017-08-28T16:22:27.236Z,20.53
2017-08-28T16:24:54.778Z,18.57
2017-08-28T16:27:22.314Z,18.53
2017-08-28T16:29:49.869Z,19.70
2017-08-28T16:32:17.402Z,20.47
2017-08-28T16:34:44.981Z,21.83
2017-08-28T16:37:12.528Z,21.30
2017-08-28T16:39:40.057Z,28.70
2017-08-28T16:42:07.613Z,26.30
2017-08-28T16:44:35.145Z,22.20
2017-08-28T16:47:02.935Z,24.63
2017-08-28T16:49:30.479Z,27.33
2017-08-28T16:54:32.021Z,27.77
2017-08-28T16:56:59.929Z,33.60
2017-08-28T16:59:27.584Z,20.30
2017-08-28T17:01:55.144Z,27.60
2017-08-28T17:04:22.677Z,20.30
2017-08-28T17:06:50.292Z,23.10
2017-08-28T17:09:18.532Z,21.70
2017-08-28T17:11:46.299Z,22.07
2017-08-28T17:14:14.837Z,18.90
2017-08-28T17:16:43.216Z,25.23
2017-08-28T17:19:10.793Z,33.57
2017-08-28T17:21:38.328Z,22.53
2017-08-28T17:24:05.887Z,21.00
2017-08-28T17:26:33.469Z,23.80
2017-08-28T17:29:01.967Z,18.10
2017-08-28T17:31:29.563Z,18.63
2017-08-28T17:33:57.102Z,19.60
2017-08-28T17:36:25.369Z,18.23
2017-08-28T17:38:53.126Z,18.00
2017-08-28T17:41:21.581Z,22.17
2017-08-28T17:43:49.216Z,22.23
2017-08-28T17:46:18.612Z,18.70
2017-08-28T17:48:46.241Z,19.30
2017-08-28T17:51:13.825Z,18.57
2017-08-28T17:53:41.405Z,16.47
2017-08-28T17:56:08.941Z,21.60
2017-08-28T17:58:36.642Z,19.40
2017-08-28T18:01:04.980Z,19.00
2017-08-28T18:03:32.559Z,20.40
2017-08-28T18:06:00.164Z,27.97
2017-08-28T18:08:27.691Z,19.00
2017-08-28T18:10:56.339Z,16.70
2017-08-28T18:13:24.333Z,17.50
2017-08-28T18:15:52.862Z,22.90
2017-08-28T18:18:20.403Z,21.33
2017-08-28T18:20:47.933Z,18.30
2017-08-28T18:23:15.625Z,21.60
2017-08-28T18:25:43.186Z,20.33
2017-08-28T18:28:10.713Z,27.80
2017-08-28T18:30:39.041Z,18.53
2017-08-28T18:33:06.580Z,21.50
2017-08-28T18:35:34.175Z,21.00
2017-08-28T18:38:01.705Z,19.00
2017-08-28T18:40:29.226Z,21.17
2017-08-28T18:42:56.765Z,21.53
2017-08-28T18:45:24.300Z,19.33
2017-08-28T18:47:52.063Z,28.87
2017-08-28T18:50:19.590Z,22.33
2017-08-28T18:52:47.123Z,21.53
2017-08-28T18:55:14.702Z,26.27
2017-08-28T18:57:42.238Z,24.50
2017-08-28T19:00:10.066Z,24.33
2017-08-28T19:02:37.594Z,21.30
2017-08-28T19:05:05.473Z,23.50
2017-08-28T19:07:33.037Z,25.63
2017-08-28T19:10:00.993Z,21.50
2017-08-28T19:12:28.578Z,22.07
2017-08-28T19:14:56.147Z,19.87
2017-08-28T19:17:23.683Z,19.77
2017-08-28T19:19:51.245Z,23.13
2017-08-28T19:22:19.534Z,26.17
2017-08-28T19:24:47.097Z,21.70
2017-08-28T19:27:14.662Z,25.80
2017-08-28T19:29:42.978Z,22.13
2017-08-28T19:32:10.561Z,24.47
2017-08-28T19:34:51.139Z,24.73
2017-08-28T19:37:18.708Z,27.03
2017-08-28T19:39:46.233Z,24.27
2017-08-28T19:42:13.799Z,21.40
2017-08-28T19:44:41.322Z,22.77
2017-08-28T19:47:08.878Z,28.67
2017-08-28T19:49:36.473Z,27.10
2017-08-28T19:52:04.003Z,21.27
2017-08-28T19:54:31.598Z,23.90
2017-08-28T19:56:59.141Z,22.63
2017-08-28T19:59:26.680Z,33.10
2017-08-28T20:01:54.249Z,23.77
2017-08-28T20:04:21.966Z,24.67
2017-08-28T20:06:49.503Z,24.93
2017-08-28T20:09:17.081Z,24.73
2017-08-28T20:11:44.622Z,26.33
2017-08-28T20:14:12.147Z,25.40
2017-08-28T20:16:39.710Z,22.83
2017-08-28T20:19:07.267Z,24.13
2017-08-28T20:21:35.702Z,27.07
2017-08-28T20:24:03.242Z,26.73
2017-08-28T20:26:30.809Z,26.90
2017-08-28T20:28:58.366Z,26.20
2017-08-28T20:31:25.902Z,25.03
2017-08-28T20:33:53.469Z,32.63
2017-08-28T20:36:21.037Z,30.83
2017-08-28T20:38:48.605Z,32.53
2017-08-28T20:41:16.129Z,24.83
2017-08-28T20:43:43.693Z,22.90
2017-08-28T20:46:11.270Z,22.50
2017-08-28T20:48:38.830Z,28.37
2017-08-28T20:51:06.387Z,23.93
2017-08-28T20:53:33.922Z,25.47
2017-08-28T20:56:01.478Z,24.57
2017-08-28T20:58:28.997Z,30.97
2017-08-28T21:00:56.565Z,24.27
2017-08-28T21:03:24.091Z,25.93
2017-08-28T21:05:51.654Z,25.80
2017-08-28T21:08:19.213Z,28.43
2017-08-28T21:10:46.742Z,25.73
2017-08-28T21:13:14.309Z,25.47
2017-08-28T21:15:41.849Z,25.47
2017-08-28T21:18:09.409Z,29.80
2017-08-28T21:20:37.061Z,27.23
2017-08-28T21:23:04.609Z,26.70
2017-08-28T21:25:32.135Z,31.73
2017-08-28T21:27:59.716Z,27.30
2017-08-28T21:30:27.258Z,25.23
2017-08-28T21:32:54.786Z,34.30
2017-08-28T21:35:22.346Z,27.83
2017-08-28T21:37:49.912Z,28.80
2017-08-28T21:40:17.439Z,26.50
2017-08-28T21:42:44.960Z,32.07
2017-08-28T21:45:12.520Z,28.03
2017-08-28T21:47:40.041Z,27.77
2017-08-28T21:50:07.595Z,28.77
2017-08-28T21:52:35.154Z,28.03
2017-08-28T21:55:02.676Z,27.00
2017-08-28T21:57:30.243Z,27.20
2017-08-28T21:59:57.769Z,32.50
2017-08-28T22:02:25.330Z,28.10
2017-08-28T22:04:52.853Z,32.00
2017-08-28T22:07:20.453Z,30.83
2017-08-28T22:09:48.138Z,28.17
2017-08-28T22:12:15.671Z,29.00
2017-08-28T22:14:43.231Z,27.90
2017-08-28T22:17:10.757Z,27.47
2017-08-28T22:19:38.309Z,26.93
2017-08-28T22:22:05.846Z,30.20
2017-08-28T22:24:33.401Z,29.07
2017-08-28T22:27:00.938Z,27.10
2017-08-28T22:29:28.514Z,31.27
2017-08-28T22:31:56.039Z,31.60
2017-08-28T22:34:23.565Z,28.13
2017-08-28T22:36:51.121Z,30.97
2017-08-28T22:39:18.648Z,29.50
2017-08-28T22:41:46.217Z,34.10
2017-08-28T22:44:13.745Z,31.30
2017-08-28T22:46:41.269Z,32.73
2017-08-28T22:49:08.838Z,29.43
2017-08-28T22:54:45.468Z,28.37
2017-08-28T22:57:13.001Z,29.80
2017-08-28T22:59:40.573Z,27.10
2017-08-28T23:02:08.129Z,33.33
2017-08-28T23:04:35.670Z,27.03
2017-08-28T23:07:03.226Z,48.13
2017-08-28T23:09:30.774Z,28.57
2017-08-28T23:11:58.329Z,28.10
2017-08-28T23:14:25.852Z,29.93
2017-08-28T23:16:53.414Z,28.20
2017-08-28T23:19:20.938Z,29.67
2017-08-28T23:21:48.503Z,30.03
2017-08-28T23:24:16.043Z,28.87
2017-08-28T23:26:43.601Z,31.87
2017-08-28T23:29:11.128Z,30.83
2017-08-28T23:31:38.689Z,29.37
2017-08-28T23:34:06.261Z,27.63
2017-08-28T23:36:33.791Z,28.77
2017-08-28T23:39:01.347Z,27.83
2017-08-28T23:41:28.907Z,27.87
2017-08-28T23:43:56.440Z,27.40
2017-08-28T23:46:24.014Z,26.40
2017-08-28T23:48:51.542Z,26.43
2017-08-28T23:51:19.103Z,35.67
2017-08-28T23:53:46.666Z,27.87
2017-08-28T23:56:14.200Z,25.97
2017-08-28T23:58:41.766Z,31.40
